createdAt,value
2024-03-16T00:00:30.503Z,3.83
2024-03-16T00:03:00.897Z,3.97
2024-03-16T00:05:29.503Z,3.13
2024-03-16T00:07:57.762Z,4.50
2024-03-16T00:10:26.645Z,4.77
2024-03-16T00:12:55.065Z,4.20
2024-03-16T00:15:23.539Z,4.47
2024-03-16T00:17:51.984Z,3.80
2024-03-16T00:20:20.698Z,3.73
2024-03-16T00:22:49.042Z,3.40
2024-03-16T00:25:16.478Z,4.07
2024-03-16T00:27:44.881Z,3.60
2024-03-16T00:30:13.568Z,3.60
2024-03-16T00:32:42.026Z,3.63
2024-03-16T00:35:11.214Z,4.43
2024-03-16T00:37:39.666Z,3.87
2024-03-16T00:40:09.542Z,3.60
2024-03-16T00:42:37.963Z,3.60
2024-03-16T00:45:06.809Z,3.47
2024-03-16T00:47:35.237Z,2.93
2024-03-16T00:50:03.862Z,3.03
2024-03-16T00:52:32.317Z,2.93
2024-03-16T00:55:00.665Z,3.50
2024-03-16T00:57:29.939Z,4.17
2024-03-16T00:59:58.565Z,4.57
2024-03-16T01:02:26.908Z,4.30
2024-03-16T01:04:55.280Z,4.83
2024-03-16T01:07:23.773Z,4.00
2024-03-16T01:09:52.267Z,4.87
2024-03-16T01:12:20.587Z,5.30
2024-03-16T01:14:49.002Z,5.30
2024-03-16T01:17:17.502Z,4.23
2024-03-16T01:19:46.500Z,4.57
2024-03-16T01:22:15.039Z,5.27
2024-03-16T01:24:43.424Z,5.27
2024-03-16T01:27:11.802Z,6.20
2024-03-16T01:29:40.161Z,6.73
2024-03-16T01:32:09.850Z,5.60
2024-03-16T01:34:38.248Z,6.40
2024-03-16T01:37:06.819Z,6.87
2024-03-16T01:39:35.369Z,7.63
2024-03-16T01:42:04.567Z,8.60
2024-03-16T01:44:32.945Z,8.30
2024-03-16T01:47:01.292Z,8.60
2024-03-16T01:49:30.173Z,9.90
2024-03-16T01:51:58.611Z,10.43
2024-03-16T01:54:27.094Z,10.73
2024-03-16T01:56:55.531Z,8.80
2024-03-16T01:59:24.091Z,11.27
2024-03-16T02:01:52.440Z,11.17
2024-03-16T02:04:20.837Z,9.53
2024-03-16T02:06:50.555Z,8.63
2024-03-16T02:09:20.286Z,9.07
2024-03-16T02:11:51.024Z,9.30
2024-03-16T02:14:19.479Z,8.33
2024-03-16T02:16:49.229Z,8.90
2024-03-16T02:19:17.654Z,8.07
2024-03-16T02:21:45.971Z,7.47
2024-03-16T02:24:14.468Z,7.73
2024-03-16T02:26:43.642Z,6.87
2024-03-16T02:29:12.887Z,6.90
2024-03-16T02:31:41.209Z,6.53
2024-03-16T02:34:09.704Z,6.33
2024-03-16T02:36:38.063Z,6.63
2024-03-16T02:39:06.617Z,5.20
2024-03-16T02:41:34.902Z,6.20
2024-03-16T02:44:03.651Z,6.70
2024-03-16T02:46:31.971Z,6.17
2024-03-16T02:49:00.489Z,5.73
2024-03-16T02:51:28.882Z,5.70
2024-03-16T02:53:57.907Z,6.57
2024-03-16T02:56:26.224Z,7.00
2024-03-16T02:58:54.545Z,7.20
2024-03-16T03:01:23.049Z,7.03
2024-03-16T03:03:51.523Z,6.80
2024-03-16T03:06:19.948Z,7.07
2024-03-16T03:08:49.375Z,6.87
2024-03-16T03:11:17.814Z,6.77
2024-03-16T03:13:48.584Z,7.23
2024-03-16T03:16:20.307Z,6.40
2024-03-16T03:18:48.794Z,8.30
2024-03-16T03:21:17.218Z,6.97
2024-03-16T03:23:45.558Z,8.63
2024-03-16T03:26:13.862Z,7.63
2024-03-16T03:28:41.238Z,8.07
2024-03-16T03:31:09.626Z,8.47
2024-03-16T03:33:38.132Z,7.47
2024-03-16T03:36:06.989Z,9.23
2024-03-16T03:38:34.373Z,9.50
2024-03-16T03:41:02.806Z,7.67
2024-03-16T03:43:31.926Z,9.30
2024-03-16T03:46:00.512Z,9.33
2024-03-16T03:48:42.353Z,11.73
2024-03-16T03:51:11.126Z,10.33
2024-03-16T03:53:39.410Z,9.70
2024-03-16T03:56:07.760Z,12.37
2024-03-16T03:58:36.054Z,10.87
2024-03-16T04:01:04.637Z,10.30
2024-03-16T04:03:33.102Z,7.70
2024-03-16T04:06:01.513Z,8.63
2024-03-16T04:08:29.769Z,7.50
2024-03-16T04:10:58.173Z,7.67
2024-03-16T04:13:26.528Z,6.07
2024-03-16T04:15:54.888Z,5.30
2024-03-16T04:18:23.217Z,3.57
2024-03-16T04:20:51.607Z,4.20
2024-03-16T04:23:19.875Z,4.40
2024-03-16T04:25:48.322Z,3.57
2024-03-16T04:28:17.783Z,3.17
2024-03-16T04:30:46.775Z,2.60
2024-03-16T04:33:16.885Z,2.87
2024-03-16T04:35:46.804Z,2.53
2024-03-16T04:38:15.238Z,2.93
2024-03-16T04:40:43.916Z,2.37
2024-03-16T04:43:12.361Z,2.63
2024-03-16T04:45:40.865Z,2.13
2024-03-16T04:48:09.401Z,2.30
2024-03-16T04:50:38.396Z,2.70
2024-03-16T04:53:06.692Z,3.00
2024-03-16T04:55:36.142Z,2.27
2024-03-16T04:58:05.900Z,2.40
2024-03-16T05:00:34.408Z,2.73
2024-03-16T05:03:02.685Z,2.03
2024-03-16T05:05:31.072Z,2.33
2024-03-16T05:07:59.441Z,2.30
2024-03-16T05:10:28.020Z,2.13
2024-03-16T05:12:56.438Z,1.90
2024-03-16T05:15:24.863Z,2.13
2024-03-16T05:17:53.370Z,1.80
2024-03-16T05:20:22.869Z,2.10
2024-03-16T05:22:51.220Z,2.00
2024-03-16T05:25:19.984Z,2.07
2024-03-16T05:27:48.415Z,2.23
2024-03-16T05:30:16.847Z,2.00
2024-03-16T05:32:45.195Z,2.10
2024-03-16T05:35:14.233Z,1.67
2024-03-16T05:37:42.523Z,1.70
2024-03-16T05:40:12.402Z,2.33
2024-03-16T05:42:40.996Z,2.20
2024-03-16T05:45:09.820Z,2.40
2024-03-16T05:47:38.216Z,2.60
2024-03-16T05:50:07.146Z,2.37
2024-03-16T05:52:36.621Z,2.20
2024-03-16T05:55:05.319Z,1.80
2024-03-16T05:57:33.882Z,1.90
2024-03-16T06:00:02.249Z,2.20
2024-03-16T06:02:40.659Z,1.67
2024-03-16T06:05:10.581Z,2.07
2024-03-16T06:07:38.981Z,2.23
2024-03-16T06:10:10.848Z,2.77
2024-03-16T06:12:39.353Z,2.07
2024-03-16T06:15:08.138Z,1.80
2024-03-16T06:17:36.561Z,1.53
2024-03-16T06:20:06.724Z,1.30
2024-03-16T06:22:35.442Z,2.07
2024-03-16T06:25:04.198Z,1.43
2024-03-16T06:27:32.550Z,2.30
2024-03-16T06:30:01.830Z,1.40
2024-03-16T06:32:35.578Z,1.10
2024-03-16T06:35:05.527Z,1.37
2024-03-16T06:37:33.866Z,1.10
2024-03-16T06:40:02.205Z,0.93
2024-03-16T06:42:30.631Z,1.00
2024-03-16T06:44:59.020Z,1.50
2024-03-16T06:47:28.607Z,1.00
2024-03-16T06:49:56.882Z,1.23
2024-03-16T06:52:26.566Z,1.13
2024-03-16T06:54:54.955Z,1.30
2024-03-16T06:57:23.277Z,1.33
2024-03-16T06:59:51.664Z,1.33
2024-03-16T07:02:20.026Z,1.30
2024-03-16T07:04:48.378Z,1.70
2024-03-16T07:07:16.812Z,1.10
2024-03-16T07:09:45.270Z,1.40
2024-03-16T07:12:13.621Z,1.30
2024-03-16T07:14:41.994Z,1.30
2024-03-16T07:17:10.465Z,1.30
2024-03-16T07:19:38.824Z,1.30
2024-03-16T07:22:07.235Z,1.60
2024-03-16T07:24:35.809Z,1.80
2024-03-16T07:27:04.192Z,1.17
2024-03-16T07:29:32.520Z,1.60
2024-03-16T07:32:00.855Z,1.20
2024-03-16T07:34:29.541Z,1.30
2024-03-16T07:37:00.222Z,1.80
2024-03-16T07:39:28.937Z,1.10
2024-03-16T07:41:57.304Z,1.20
2024-03-16T07:44:25.657Z,1.30
2024-03-16T07:46:53.987Z,1.27
2024-03-16T07:49:22.411Z,0.97
2024-03-16T07:51:50.829Z,0.80
2024-03-16T07:54:19.399Z,0.97
2024-03-16T07:56:49.730Z,0.83
2024-03-16T07:59:20.872Z,0.90
2024-03-16T08:01:49.332Z,0.87
2024-03-16T08:04:18.477Z,0.97
2024-03-16T08:06:49.941Z,1.00
2024-03-16T08:09:18.453Z,0.90
2024-03-16T08:11:47.032Z,0.80
2024-03-16T08:14:15.537Z,0.80
2024-03-16T08:16:43.846Z,0.93
2024-03-16T08:19:12.418Z,1.03
2024-03-16T08:21:40.989Z,1.63
2024-03-16T08:24:09.391Z,1.50
2024-03-16T08:26:37.712Z,1.10
2024-03-16T08:29:06.412Z,1.00
2024-03-16T08:31:35.175Z,1.00
2024-03-16T08:34:03.623Z,1.00
2024-03-16T08:36:32.788Z,1.77
2024-03-16T08:39:04.128Z,0.90
2024-03-16T08:41:32.572Z,1.10
2024-03-16T08:44:00.911Z,1.10
2024-03-16T08:46:30.311Z,1.27
2024-03-16T08:48:58.918Z,1.60
2024-03-16T08:51:27.492Z,1.10
2024-03-16T08:53:55.802Z,1.00
2024-03-16T08:56:27.215Z,1.63
2024-03-16T08:58:55.634Z,1.03
2024-03-16T09:01:24.016Z,1.20
2024-03-16T09:03:52.507Z,1.40
2024-03-16T09:06:20.851Z,1.20
2024-03-16T09:08:49.224Z,1.03
2024-03-16T09:11:17.978Z,0.87
2024-03-16T09:13:47.492Z,0.97
2024-03-16T09:16:16.005Z,0.90
2024-03-16T09:18:44.440Z,0.90
2024-03-16T09:21:12.767Z,1.17
2024-03-16T09:23:41.167Z,1.43
2024-03-16T09:26:09.665Z,1.20
2024-03-16T09:28:38.094Z,1.20
2024-03-16T09:31:11.478Z,1.10
2024-03-16T09:33:39.962Z,1.03
2024-03-16T09:36:08.426Z,1.00
2024-03-16T09:38:37.392Z,1.00
2024-03-16T09:41:05.878Z,1.33
